Time;durP1;ratioP1;P1;durP2;ratioP2;P2;SDS_P1;SDS_P2;PMS_P1;PMS_P2;Temp;Humidity;BMP_temperature;BMP_pressure;BME280_temperature;BME280_humidity;BME280_pressure;Samples;Min_cycle;Max_cycle;Signal;HPM_P1;HPM_P2
2023/05/12 00:02:06;;;;;;;6.03;5.53;;;16.50;1.00;;;;;;5010388;28;21311;-82
2023/05/12 00:04:34;;;;;;;6.13;5.63;;;16.50;1.00;;;;;;5009172;28;20560;-82
2023/05/12 00:07:02;;;;;;;7.00;5.80;;;16.40;1.00;;;;;;4991445;28;20990;-81
2023/05/12 00:09:29;;;;;;;9.27;6.10;;;16.40;1.00;;;;;;4997342;28;20490;-83
2023/05/12 00:11:56;;;;;;;6.23;5.63;;;16.40;1.00;;;;;;5002532;28;20552;-82
2023/05/12 00:14:23;;;;;;;7.07;6.40;;;16.40;1.00;;;;;;5002628;28;20478;-82
2023/05/12 00:16:52;;;;;;;7.80;6.60;;;16.30;1.00;;;;;;5007453;28;20861;-83
2023/05/12 00:19:20;;;;;;;6.90;6.13;;;16.30;1.00;;;;;;5009079;28;20492;-82
2023/05/12 00:21:47;;;;;;;8.90;6.03;;;16.20;1.00;;;;;;5008653;28;20990;-83
2023/05/12 00:24:14;;;;;;;9.60;6.33;;;16.20;1.00;;;;;;4988455;28;20450;-82
2023/05/12 00:26:42;;;;;;;7.27;5.97;;;16.10;1.00;;;;;;4999735;28;20471;-82
2023/05/12 00:29:10;;;;;;;6.90;6.30;;;16.00;1.00;;;;;;5003861;28;20498;-81
2023/05/12 00:31:39;;;;;;;7.30;6.30;;;16.00;1.00;;;;;;5003151;28;20426;-83
2023/05/12 00:34:07;;;;;;;6.80;6.20;;;15.90;1.00;;;;;;5000711;28;20857;-83
2023/05/12 00:36:35;;;;;;;6.43;5.83;;;15.80;1.00;;;;;;5010344;28;20977;-83
2023/05/12 00:39:04;;;;;;;6.40;5.80;;;15.80;1.00;;;;;;5008121;28;20471;-82
2023/05/12 00:41:34;;;;;;;6.70;6.00;;;15.70;1.00;;;;;;5004808;28;20599;-84
2023/05/12 00:44:01;;;;;;;7.97;6.00;;;15.70;1.00;;;;;;4984287;28;20477;-83
2023/05/12 00:46:29;;;;;;;6.33;5.70;;;15.60;1.00;;;;;;5005150;28;20525;-83
2023/05/12 00:48:56;;;;;;;6.43;5.83;;;15.60;1.00;;;;;;5002533;28;21047;-81
2023/05/12 00:51:26;;;;;;;6.10;5.50;;;15.50;1.00;;;;;;5005580;28;20986;-82
2023/05/12 00:53:54;;;;;;;6.13;5.53;;;15.50;1.00;;;;;;4998525;28;20481;-82
2023/05/12 00:56:21;;;;;;;6.20;5.50;;;15.60;1.00;;;;;;4976021;28;20457;-82
2023/05/12 00:58:48;;;;;;;7.87;6.00;;;15.50;1.00;;;;;;5010296;28;20427;-83
2023/05/12 01:01:16;;;;;;;6.87;6.27;;;15.50;1.00;;;;;;5010175;28;20989;-82
2023/05/12 01:03:43;;;;;;;6.30;5.67;;;15.60;1.00;;;;;;5063275;23;20460;-78
2023/05/12 01:06:15;;;;;;;11.50;6.67;;;15.60;1.00;;;;;;4994489;28;20465;-77
2023/05/12 01:08:44;;;;;;;6.27;5.77;;;15.60;1.00;;;;;;4994575;28;20494;-77
2023/05/12 01:11:11;;;;;;;8.67;5.10;;;15.50;1.00;;;;;;4992671;28;21393;-76
2023/05/12 01:13:40;;;;;;;6.10;5.60;;;15.50;1.00;;;;;;4993431;28;20483;-78
2023/05/12 01:16:09;;;;;;;6.87;6.17;;;15.50;1.00;;;;;;4997068;28;20882;-77
2023/05/12 01:18:40;;;;;;;6.43;5.80;;;15.50;1.00;;;;;;4993063;28;20555;-77
2023/05/12 01:21:08;;;;;;;7.47;6.10;;;15.50;1.00;;;;;;4996686;28;20454;-77
2023/05/12 01:23:39;;;;;;;6.20;5.27;;;15.50;1.00;;;;;;5000359;28;20957;-78
2023/05/12 01:26:09;;;;;;;6.10;5.60;;;15.40;1.00;;;;;;4993446;28;20550;-78
2023/05/12 01:28:37;;;;;;;6.80;5.43;;;15.40;1.00;;;;;;4993265;28;20492;-76
2023/05/12 01:31:06;;;;;;;7.90;5.87;;;15.30;1.00;;;;;;4999189;28;20465;-76
2023/05/12 01:33:34;;;;;;;6.67;6.07;;;15.30;1.00;;;;;;4997385;28;20477;-76
2023/05/12 01:36:01;;;;;;;8.03;7.30;;;15.30;1.00;;;;;;4998380;28;20898;-75
2023/05/12 01:38:28;;;;;;;7.03;6.03;;;15.30;1.00;;;;;;4998983;28;20465;-77
2023/05/12 01:41:03;;;;;;;7.30;6.50;;;15.30;1.00;;;;;;4997024;28;21302;-77
2023/05/12 01:43:32;;;;;;;10.30;6.10;;;15.30;1.00;;;;;;4996163;28;20567;-76
2023/05/12 01:45:59;;;;;;;7.50;5.87;;;15.20;1.00;;;;;;4993119;28;21269;-78
2023/05/12 01:48:26;;;;;;;6.53;5.90;;;15.30;1.00;;;;;;4997050;28;20471;-76
2023/05/12 01:50:53;;;;;;;7.23;5.90;;;15.20;1.00;;;;;;4996823;28;20466;-76
2023/05/12 01:53:20;;;;;;;6.70;6.07;;;15.10;1.00;;;;;;4998582;28;20518;-76
2023/05/12 01:55:49;;;;;;;6.00;5.40;;;15.10;1.00;;;;;;4999789;28;20556;-76
2023/05/12 01:58:18;;;;;;;5.90;5.40;;;15.00;1.00;;;;;;4998980;28;21017;-78
2023/05/12 02:00:46;;;;;;;8.40;6.17;;;15.00;1.00;;;;;;5001046;28;20481;-76
2023/05/12 02:03:13;;;;;;;7.43;6.77;;;15.00;1.00;;;;;;5001302;28;20549;-77
2023/05/12 02:05:40;;;;;;;6.93;5.87;;;14.90;1.00;;;;;;5001958;28;20465;-76
2023/05/12 02:08:07;;;;;;;6.97;6.37;;;14.90;1.00;;;;;;4998185;28;20899;-76
2023/05/12 02:10:34;;;;;;;6.63;6.03;;;14.80;1.00;;;;;;4998992;28;20508;-76
2023/05/12 02:13:01;;;;;;;7.27;6.07;;;14.70;1.00;;;;;;4994790;28;20492;-75
2023/05/12 02:15:28;;;;;;;8.10;7.30;;;14.70;1.00;;;;;;5000299;28;20573;-75
2023/05/12 02:17:57;;;;;;;6.17;5.60;;;14.60;1.00;;;;;;4992444;28;20469;-77
2023/05/12 02:20:24;;;;;;;6.90;6.30;;;14.60;1.00;;;;;;4998090;28;20556;-76
2023/05/12 02:22:51;;;;;;;6.80;6.20;;;14.50;1.00;;;;;;4997956;28;20545;-79
2023/05/12 02:25:18;;;;;;;7.30;6.23;;;14.50;1.00;;;;;;4996243;28;20971;-76
2023/05/12 02:27:45;;;;;;;10.70;8.40;;;14.40;1.00;;;;;;4994898;28;20482;-76
2023/05/12 02:30:12;;;;;;;6.83;6.13;;;14.40;1.00;;;;;;4995425;28;20467;-76
2023/05/12 02:32:39;;;;;;;7.27;6.53;;;14.40;1.00;;;;;;4995403;28;20476;-76
2023/05/12 02:35:09;;;;;;;6.60;6.00;;;14.30;1.00;;;;;;4997986;28;20463;-75
2023/05/12 02:37:36;;;;;;;15.60;7.00;;;14.20;1.00;;;;;;4982652;28;20585;-75
2023/05/12 02:40:04;;;;;;;7.70;6.67;;;14.10;1.00;;;;;;4994739;28;20457;-77
2023/05/12 02:42:34;;;;;;;6.90;6.30;;;14.10;1.00;;;;;;4994919;28;21247;-76
2023/05/12 02:45:01;;;;;;;8.50;6.23;;;14.00;1.00;;;;;;4993788;28;20463;-77
2023/05/12 02:47:30;;;;;;;7.00;6.30;;;14.00;1.00;;;;;;4996370;28;20623;-76
2023/05/12 02:49:57;;;;;;;10.00;6.40;;;13.90;1.00;;;;;;4989428;28;20562;-76
2023/05/12 02:52:25;;;;;;;7.80;6.97;;;13.90;1.00;;;;;;4995601;28;20508;-75
2023/05/12 02:54:54;;;;;;;8.00;7.30;;;13.80;1.00;;;;;;4995119;28;20576;-76
2023/05/12 02:57:21;;;;;;;6.83;6.23;;;13.70;1.00;;;;;;5000369;28;20475;-75
2023/05/12 02:59:48;;;;;;;9.80;7.00;;;13.70;1.00;;;;;;4997704;28;20466;-78
2023/05/12 03:02:15;;;;;;;7.67;6.87;;;13.60;1.00;;;;;;4992727;28;20499;-76
2023/05/12 03:04:42;;;;;;;7.63;6.83;;;13.60;1.00;;;;;;4995182;28;20487;-76
2023/05/12 03:07:10;;;;;;;9.23;7.20;;;13.50;1.00;;;;;;5000152;28;20977;-76
2023/05/12 03:09:38;;;;;;;7.83;7.13;;;13.50;1.00;;;;;;4999131;28;20535;-78
2023/05/12 03:12:06;;;;;;;8.10;7.20;;;13.50;1.00;;;;;;4993475;28;20484;-78
2023/05/12 03:14:33;;;;;;;7.40;6.70;;;13.40;1.00;;;;;;4999628;28;20955;-77
2023/05/12 03:17:00;;;;;;;8.90;7.00;;;13.40;1.00;;;;;;4996320;28;20562;-75
2023/05/12 03:19:27;;;;;;;8.73;7.23;;;13.30;1.00;;;;;;4994985;28;20463;-77
2023/05/12 03:21:55;;;;;;;8.20;7.50;;;13.30;1.00;;;;;;4998802;28;20564;-76
2023/05/12 03:24:21;;;;;;;9.57;6.67;;;13.30;1.00;;;;;;4996038;28;20459;-75
2023/05/12 03:26:50;;;;;;;9.73;7.60;;;13.30;1.00;;;;;;4999057;28;20475;-77
2023/05/12 03:29:17;;;;;;;13.40;8.53;;;13.30;1.00;;;;;;4998664;28;20470;-77
2023/05/12 03:31:44;;;;;;;10.60;7.50;;;13.20;1.00;;;;;;5004573;28;20536;-76
2023/05/12 03:34:11;;;;;;;10.77;7.20;;;13.30;1.00;;;;;;4999029;28;20963;-76
2023/05/12 03:36:39;;;;;;;8.20;7.13;;;13.20;1.00;;;;;;5001339;28;20468;-77
2023/05/12 03:39:07;;;;;;;10.60;6.80;;;13.20;1.00;;;;;;4999272;28;20894;-77
2023/05/12 03:41:35;;;;;;;8.90;7.03;;;13.10;1.00;;;;;;5000146;28;20485;-76
2023/05/12 03:44:04;;;;;;;9.40;7.20;;;13.10;1.00;;;;;;5001998;28;20471;-76
2023/05/12 03:46:31;;;;;;;30.20;12.10;;;13.10;1.00;;;;;;4997058;28;20489;-78
2023/05/12 03:48:58;;;;;;;14.27;8.60;;;13.10;1.00;;;;;;4999518;28;20472;-76
2023/05/12 03:51:26;;;;;;;11.23;8.00;;;13.10;1.00;;;;;;5003876;28;20439;-77
2023/05/12 03:53:53;;;;;;;12.60;7.73;;;13.10;1.00;;;;;;5000312;28;20983;-78
2023/05/12 03:56:20;;;;;;;8.97;7.47;;;13.10;1.00;;;;;;5002952;28;20499;-75
2023/05/12 03:58:47;;;;;;;8.13;7.33;;;13.00;1.00;;;;;;5003324;28;20533;-77
2023/05/12 04:01:16;;;;;;;8.43;7.27;;;13.10;1.00;;;;;;5001985;28;20540;-77
2023/05/12 04:03:43;;;;;;;8.10;6.97;;;13.00;1.00;;;;;;4995480;28;20543;-77
2023/05/12 04:06:10;;;;;;;10.30;7.23;;;13.10;1.00;;;;;;4996161;28;20494;-77
2023/05/12 04:08:37;;;;;;;12.10;9.17;;;13.10;1.00;;;;;;4995222;28;20476;-75
2023/05/12 04:11:04;;;;;;;7.93;7.30;;;13.10;1.00;;;;;;4993278;28;21579;-79
2023/05/12 04:13:31;;;;;;;7.40;6.70;;;13.10;1.00;;;;;;4998187;28;20555;-79
2023/05/12 04:15:59;;;;;;;7.80;7.00;;;13.10;1.00;;;;;;4998151;28;20468;-78
2023/05/12 04:18:28;;;;;;;9.40;6.13;;;13.20;1.00;;;;;;4989361;28;20574;-78
2023/05/12 04:20:55;;;;;;;8.83;7.77;;;13.20;1.00;;;;;;4993504;28;20444;-78
2023/05/12 04:23:23;;;;;;;12.43;8.47;;;13.20;1.00;;;;;;4999068;28;20424;-78
2023/05/12 04:25:50;;;;;;;8.53;7.67;;;13.30;1.00;;;;;;5001640;28;20807;-78
2023/05/12 04:28:17;;;;;;;9.77;7.70;;;13.30;1.00;;;;;;4996840;28;20461;-79
2023/05/12 04:30:44;;;;;;;8.20;6.80;;;13.30;1.00;;;;;;4996238;28;20479;-79
2023/05/12 04:33:11;;;;;;;10.50;7.00;;;13.30;1.00;;;;;;4999499;28;20532;-80
2023/05/12 04:35:39;;;;;;;8.40;7.13;;;13.40;1.00;;;;;;5004332;28;22072;-79
2023/05/12 04:38:06;;;;;;;7.37;6.63;;;13.40;1.00;;;;;;5003585;28;20483;-80
2023/05/12 04:40:34;;;;;;;14.20;7.83;;;13.50;1.00;;;;;;5013670;28;20449;-80
2023/05/12 04:43:04;;;;;;;8.57;7.23;;;13.50;1.00;;;;;;5007710;28;20465;-79
2023/05/12 04:45:32;;;;;;;7.80;7.00;;;13.50;1.00;;;;;;4999848;28;20478;-79
2023/05/12 04:47:59;;;;;;;7.40;6.70;;;13.50;1.00;;;;;;4998406;28;20526;-78
2023/05/12 04:50:26;;;;;;;8.90;6.97;;;13.60;1.00;;;;;;4995904;28;20556;-79
2023/05/12 04:52:54;;;;;;;9.77;8.30;;;13.70;1.00;;;;;;4998675;28;20542;-80
2023/05/12 04:55:21;;;;;;;10.83;7.47;;;13.80;1.00;;;;;;4997177;28;20468;-81
2023/05/12 04:57:48;;;;;;;7.40;6.80;;;13.90;1.00;;;;;;4999970;28;20444;-80
2023/05/12 05:00:16;;;;;;;12.33;7.87;;;13.80;1.00;;;;;;5000436;28;20846;-79
2023/05/12 05:02:43;;;;;;;7.80;7.00;;;13.90;1.00;;;;;;4996755;28;20519;-80
2023/05/12 05:05:10;;;;;;;9.30;7.03;;;14.00;1.00;;;;;;4997373;28;20469;-80
2023/05/12 05:07:37;;;;;;;8.83;7.93;;;14.00;1.00;;;;;;5002143;28;20536;-79
2023/05/12 05:10:07;;;;;;;9.07;8.30;;;14.10;1.00;;;;;;4997455;28;20955;-80
2023/05/12 05:12:34;;;;;;;10.50;8.37;;;14.20;1.00;;;;;;4996954;28;20457;-79
2023/05/12 05:15:02;;;;;;;7.77;6.97;;;14.30;1.00;;;;;;4988991;28;20497;-80
2023/05/12 05:17:28;;;;;;;7.53;6.83;;;14.30;1.00;;;;;;4998402;28;20425;-80
2023/05/12 05:19:55;;;;;;;8.70;7.80;;;14.40;1.00;;;;;;4996990;28;20512;-79
2023/05/12 05:22:22;;;;;;;9.80;7.33;;;14.50;1.00;;;;;;5003115;28;20512;-80
2023/05/12 05:24:50;;;;;;;8.60;7.00;;;14.60;1.00;;;;;;4997062;28;20491;-79
2023/05/12 05:27:19;;;;;;;8.40;7.10;;;14.80;1.00;;;;;;4998498;28;20421;-79
2023/05/12 05:29:46;;;;;;;8.27;7.50;;;14.80;1.00;;;;;;4996576;28;20908;-80
2023/05/12 05:32:13;;;;;;;23.23;10.47;;;15.00;1.00;;;;;;5001280;28;20468;-79
2023/05/12 05:34:41;;;;;;;8.43;7.17;;;15.00;1.00;;;;;;5002899;28;20473;-80
2023/05/12 05:37:09;;;;;;;9.87;7.27;;;15.10;1.00;;;;;;5002968;28;20430;-80
2023/05/12 05:39:36;;;;;;;7.40;6.70;;;15.10;1.00;;;;;;4999959;28;21392;-79
2023/05/12 05:42:03;;;;;;;10.50;7.70;;;15.20;1.00;;;;;;5002147;28;21108;-80
2023/05/12 05:44:32;;;;;;;11.60;7.23;;;15.30;1.00;;;;;;5002492;28;20527;-80
2023/05/12 05:46:59;;;;;;;8.83;7.10;;;15.50;1.00;;;;;;5003992;28;20461;-81
2023/05/12 05:49:26;;;;;;;10.80;7.30;;;15.50;1.00;;;;;;5003123;28;20527;-80
2023/05/12 05:51:55;;;;;;;8.97;7.23;;;15.60;1.00;;;;;;4986837;28;20570;-81
2023/05/12 05:54:23;;;;;;;10.60;8.60;;;15.80;1.00;;;;;;4999128;28;20507;-79
2023/05/12 05:56:51;;;;;;;9.47;7.47;;;15.90;1.00;;;;;;4998460;28;21029;-80
2023/05/12 05:59:19;;;;;;;11.80;7.33;;;16.00;1.00;;;;;;4998774;28;20495;-80
2023/05/12 06:01:48;;;;;;;8.70;7.10;;;16.10;1.00;;;;;;5001779;28;20497;-79
2023/05/12 06:04:15;;;;;;;7.10;5.57;;;16.10;1.00;;;;;;4996462;28;20446;-80
2023/05/12 06:06:42;;;;;;;8.90;6.73;;;16.20;1.00;;;;;;5001001;28;20565;-80
2023/05/12 06:09:11;;;;;;;13.00;9.77;;;16.30;1.00;;;;;;4995615;28;20450;-79
2023/05/12 06:11:42;;;;;;;8.30;7.33;;;16.40;1.00;;;;;;4994854;28;20509;-79
2023/05/12 06:14:09;;;;;;;7.93;6.73;;;16.50;1.00;;;;;;4997474;28;20477;-78
2023/05/12 06:16:36;;;;;;;14.03;8.20;;;16.70;1.00;;;;;;4993287;28;20549;-79
2023/05/12 06:19:04;;;;;;;9.97;6.53;;;16.80;1.00;;;;;;4999891;28;20459;-81
2023/05/12 06:21:34;;;;;;;7.50;6.80;;;16.80;1.00;;;;;;4997704;28;21160;-78
2023/05/12 06:24:01;;;;;;;9.50;7.10;;;16.90;1.00;;;;;;4995261;28;20561;-79
2023/05/12 06:26:30;;;;;;;7.97;6.77;;;17.00;1.00;;;;;;4999729;28;20592;-80
2023/05/12 06:28:57;;;;;;;7.10;6.50;;;17.00;1.00;;;;;;4997708;28;20920;-79
2023/05/12 06:31:24;;;;;;;10.87;8.60;;;17.20;1.00;;;;;;4998462;28;20546;-77
2023/05/12 06:33:51;;;;;;;9.20;6.87;;;17.00;1.00;;;;;;4995186;28;20999;-79
2023/05/12 06:36:22;;;;;;;14.07;8.07;;;17.10;1.00;;;;;;4992350;28;20491;-78
2023/05/12 06:38:51;;;;;;;7.77;6.53;;;17.30;1.00;;;;;;4998412;28;20573;-79
2023/05/12 06:41:17;;;;;;;6.80;6.20;;;17.40;1.00;;;;;;4975937;28;20465;-77
2023/05/12 06:43:46;;;;;;;9.83;6.40;;;17.60;1.00;;;;;;4998384;28;20463;-79
2023/05/12 06:46:13;;;;;;;9.00;6.50;;;17.50;1.00;;;;;;4998518;28;20482;-78
2023/05/12 06:48:40;;;;;;;10.17;6.43;;;17.50;1.00;;;;;;4995094;28;20530;-77
2023/05/12 06:51:08;;;;;;;9.53;7.00;;;17.60;1.00;;;;;;4994663;28;20471;-79
2023/05/12 06:53:37;;;;;;;11.73;8.03;;;17.80;1.00;;;;;;5001199;28;20510;-79
2023/05/12 06:56:06;;;;;;;9.13;6.90;;;17.90;1.00;;;;;;4998690;28;20582;-79
2023/05/12 06:58:33;;;;;;;7.03;6.23;;;18.10;1.00;;;;;;4997149;28;20517;-80
2023/05/12 07:01:02;;;;;;;7.23;5.83;;;18.20;1.00;;;;;;4993491;28;20468;-76
2023/05/12 07:03:32;;;;;;;7.17;5.60;;;18.40;1.00;;;;;;4996518;28;21476;-76
2023/05/12 07:05:59;;;;;;;8.20;6.27;;;18.40;1.00;;;;;;4985593;28;21239;-77
2023/05/12 07:08:26;;;;;;;11.50;6.87;;;18.50;1.00;;;;;;5001756;28;20923;-76
2023/05/12 07:10:54;;;;;;;6.80;6.10;;;18.60;1.00;;;;;;5001565;28;21181;-76
2023/05/12 07:13:22;;;;;;;8.87;6.70;;;18.80;1.00;;;;;;4999328;28;20482;-76
2023/05/12 07:15:49;;;;;;;7.27;6.57;;;19.00;1.00;;;;;;4999982;28;20491;-75
2023/05/12 07:18:16;;;;;;;9.57;6.63;;;19.10;1.00;;;;;;5000744;28;20470;-78
2023/05/12 07:20:43;;;;;;;16.20;6.77;;;19.20;1.00;;;;;;4996088;28;20945;-76
2023/05/12 07:23:10;;;;;;;8.40;6.20;;;19.30;1.00;;;;;;5001623;28;20482;-77
2023/05/12 07:25:38;;;;;;;6.97;6.20;;;19.30;1.00;;;;;;4997863;28;20598;-76
2023/05/12 07:28:06;;;;;;;9.73;6.57;;;19.50;1.00;;;;;;4998711;28;20560;-76
2023/05/12 07:30:34;;;;;;;6.73;6.13;;;19.50;1.00;;;;;;4998221;28;20994;-76
2023/05/12 07:33:01;;;;;;;10.60;7.03;;;19.50;1.00;;;;;;5001874;28;20460;-76
2023/05/12 07:35:28;;;;;;;11.20;8.03;;;19.50;1.00;;;;;;5000575;28;20862;-77
2023/05/12 07:37:55;;;;;;;8.33;6.97;;;19.70;1.00;;;;;;5004666;28;20461;-77
2023/05/12 07:40:27;;;;;;;6.10;5.60;;;20.00;1.00;;;;;;4994387;28;20607;-79
2023/05/12 07:42:54;;;;;;;6.90;6.20;;;20.20;1.00;;;;;;4988952;28;20557;-76
2023/05/12 07:45:23;;;;;;;7.77;5.33;;;20.30;1.00;;;;;;4989881;28;20891;-77
2023/05/12 07:47:51;;;;;;;7.30;6.10;;;20.30;1.00;;;;;;4996330;28;21007;-76
2023/05/12 07:50:18;;;;;;;10.60;7.10;;;20.40;1.00;;;;;;5000045;28;20463;-76
2023/05/12 07:52:49;;;;;;;9.33;5.70;;;20.30;1.00;;;;;;4994451;28;21309;-78
2023/05/12 07:55:17;;;;;;;9.27;6.30;;;20.40;1.00;;;;;;4997629;28;20529;-77
2023/05/12 07:57:44;;;;;;;8.03;5.93;;;20.60;1.00;;;;;;4997961;28;20472;-77
2023/05/12 08:00:13;;;;;;;8.33;6.43;;;20.70;1.00;;;;;;4993783;28;20567;-77
2023/05/12 08:02:42;;;;;;;7.70;6.80;;;20.90;1.00;;;;;;4997761;28;20497;-76
2023/05/12 08:05:12;;;;;;;11.87;7.13;;;21.10;1.00;;;;;;4992010;28;20679;-78
2023/05/12 08:07:42;;;;;;;9.77;6.10;;;21.30;1.00;;;;;;4994228;28;20482;-76
2023/05/12 08:10:11;;;;;;;5.47;4.97;;;21.40;1.00;;;;;;4976335;28;20490;-75
2023/05/12 08:12:41;;;;;;;6.77;5.10;;;21.40;1.00;;;;;;4998528;28;20473;-75
2023/05/12 08:15:09;;;;;;;5.40;4.60;;;21.40;1.00;;;;;;4999531;28;20534;-76
2023/05/12 08:17:36;;;;;;;6.27;5.67;;;21.20;1.00;;;;;;4997820;28;20482;-80
2023/05/12 08:20:05;;;;;;;8.50;5.67;;;21.30;1.00;;;;;;4999416;28;20552;-84
2023/05/12 08:22:32;;;;;;;7.30;4.83;;;21.30;1.00;;;;;;4999760;28;20565;-78
2023/05/12 08:24:59;;;;;;;9.70;5.70;;;21.30;1.00;;;;;;4998570;28;20510;-76
2023/05/12 08:27:28;;;;;;;15.03;6.63;;;21.30;1.00;;;;;;4993179;28;20485;-79
2023/05/12 08:29:55;;;;;;;6.53;4.83;;;21.30;1.00;;;;;;5004561;28;20443;-76
2023/05/12 08:32:22;;;;;;;7.40;4.90;;;21.30;1.00;;;;;;5004321;28;20494;-78
2023/05/12 08:34:49;;;;;;;6.07;5.20;;;21.10;1.00;;;;;;4993392;28;20620;-77
2023/05/12 08:37:18;;;;;;;7.60;5.10;;;21.20;1.00;;;;;;4972118;28;20483;-76
2023/05/12 08:39:48;;;;;;;9.63;5.13;;;21.40;1.00;;;;;;4975617;28;20463;-78
2023/05/12 08:42:44;;;;;;;7.70;5.43;;;21.60;1.00;;;;;;5002758;28;20540;-80
2023/05/12 08:45:12;;;;;;;6.07;5.47;;;21.80;1.00;;;;;;4994631;28;22096;-79
2023/05/12 08:47:39;;;;;;;4.90;4.40;;;21.80;1.00;;;;;;4998317;28;20549;-82
2023/05/12 08:50:08;;;;;;;8.20;5.90;;;21.70;1.00;;;;;;4969245;28;20633;-79
2023/05/12 08:52:36;;;;;;;7.30;6.17;;;21.90;1.00;;;;;;5004795;28;20898;-75
2023/05/12 08:55:06;;;;;;;7.50;5.43;;;22.00;1.00;;;;;;5001661;28;20456;-75
2023/05/12 08:57:34;;;;;;;5.90;5.00;;;21.90;1.00;;;;;;5003289;28;20607;-75
2023/05/12 09:00:04;;;;;;;6.40;4.60;;;21.90;1.00;;;;;;4998959;28;20511;-78
2023/05/12 09:02:32;;;;;;;5.20;4.67;;;22.10;1.00;;;;;;4994666;28;20809;-77
2023/05/12 09:04:59;;;;;;;6.33;5.03;;;22.20;1.00;;;;;;4976191;28;20476;-76
2023/05/12 09:07:27;;;;;;;4.93;4.40;;;22.20;1.00;;;;;;4998415;28;21002;-76
2023/05/12 09:09:58;;;;;;;6.03;4.57;;;22.40;1.00;;;;;;4996244;28;20472;-76
2023/05/12 09:12:30;;;;;;;5.23;4.23;;;22.40;1.00;;;;;;4994772;28;20509;-78
2023/05/12 09:15:03;;;;;;;4.77;4.37;;;22.50;1.00;;;;;;4993594;28;20897;-77
2023/05/12 09:17:33;;;;;;;6.37;4.20;;;22.60;1.00;;;;;;4997794;28;20851;-77
2023/05/12 09:20:00;;;;;;;6.17;4.17;;;22.70;1.00;;;;;;4996577;28;20452;-78
2023/05/12 09:22:32;;;;;;;6.20;4.77;;;23.00;1.00;;;;;;4986554;28;21033;-80
2023/05/12 09:25:01;;;;;;;5.10;4.70;;;23.80;1.00;;;;;;4997125;28;20857;-78
2023/05/12 09:27:30;;;;;;;5.87;4.70;;;24.40;1.00;;;;;;4993944;28;21919;-78
2023/05/12 09:29:57;;;;;;;7.37;4.00;;;25.30;1.00;;;;;;4995334;28;20463;-79
2023/05/12 09:32:31;;;;;;;4.27;3.87;;;26.10;1.00;;;;;;5003620;28;20467;-80
2023/05/12 09:35:03;;;;;;;3.70;3.13;;;26.80;1.00;;;;;;4995825;28;20469;-78
2023/05/12 09:37:31;;;;;;;5.10;4.00;;;27.60;1.00;;;;;;4999709;28;20556;-78
2023/05/12 09:40:04;;;;;;;7.30;4.00;;;27.70;1.00;;;;;;4999308;28;21068;-78
2023/05/12 09:42:33;;;;;;;4.83;4.00;;;28.00;1.00;;;;;;5007062;28;20452;-78
2023/05/12 09:45:03;;;;;;;7.30;5.30;;;28.60;1.00;;;;;;4997385;28;20472;-81
2023/05/12 09:47:35;;;;;;;4.97;4.27;;;28.70;1.00;;;;;;5005310;28;20467;-80
2023/05/12 09:50:03;;;;;;;4.90;4.30;;;29.50;1.00;;;;;;4996123;28;21020;-77
2023/05/12 09:52:31;;;;;;;6.87;4.10;;;29.60;1.00;;;;;;4994029;28;20596;-77
2023/05/12 09:55:08;;;;;;;4.93;3.93;;;29.60;1.00;;;;;;4995454;28;20462;-77
2023/05/12 09:57:40;;;;;;;4.43;4.03;;;30.00;1.00;;;;;;4993353;28;20554;-78
2023/05/12 10:00:10;;;;;;;8.20;4.43;;;29.70;1.00;;;;;;4995937;28;20457;-80
2023/05/12 10:02:40;;;;;;;6.87;3.80;;;29.90;1.00;;;;;;5000889;28;20897;-80
2023/05/12 10:05:12;;;;;;;5.67;5.07;;;30.20;1.00;;;;;;4978508;28;20987;-78
2023/05/12 10:07:39;;;;;;;4.50;3.77;;;28.30;1.00;;;;;;4987231;28;20506;-77
2023/05/12 10:10:11;;;;;;;7.30;3.87;;;29.20;1.00;;;;;;4990960;28;20480;-80
2023/05/12 10:12:39;;;;;;;7.83;4.60;;;29.50;1.00;;;;;;4993272;28;20489;-77
2023/05/12 10:15:09;;;;;;;9.27;4.83;;;29.80;1.00;;;;;;4995173;28;20478;-79
2023/05/12 10:17:37;;;;;;;5.40;4.30;;;30.30;1.00;;;;;;5000202;28;20476;-79
2023/05/12 10:20:05;;;;;;;6.63;4.23;;;30.70;1.00;;;;;;4993915;28;20459;-78
2023/05/12 10:22:34;;;;;;;7.77;6.97;;;31.10;1.00;;;;;;4994864;28;20450;-80
2023/05/12 10:25:02;;;;;;;3.57;3.37;;;31.40;1.00;;;;;;4988399;28;20554;-79
2023/05/12 10:27:32;;;;;;;5.07;4.57;;;32.30;1.00;;;;;;4996785;28;20560;-76
2023/05/12 10:30:01;;;;;;;4.63;4.23;;;33.20;1.00;;;;;;4978140;28;20817;-79
2023/05/12 10:32:28;;;;;;;4.30;3.90;;;32.90;1.00;;;;;;4999613;28;20473;-79
2023/05/12 10:34:55;;;;;;;4.30;3.90;;;33.00;1.00;;;;;;4998669;28;20473;-76
2023/05/12 10:37:25;;;;;;;4.37;3.97;;;33.50;1.00;;;;;;4990127;28;20471;-77
2023/05/12 10:39:52;;;;;;;5.10;4.60;;;32.90;1.00;;;;;;4998136;28;20482;-78
2023/05/12 10:42:24;;;;;;;22.10;16.43;;;32.40;1.00;;;;;;4996973;28;22622;-77
2023/05/12 10:44:55;;;;;;;4.47;4.07;;;32.80;1.00;;;;;;4998117;28;20423;-78
2023/05/12 10:47:26;;;;;;;4.87;4.30;;;33.00;1.00;;;;;;4987694;28;20567;-76
2023/05/12 10:49:57;;;;;;;7.70;3.90;;;33.00;1.00;;;;;;4996748;28;20490;-77
2023/05/12 10:52:24;;;;;;;4.87;4.30;;;32.70;1.00;;;;;;5002417;28;20469;-76
2023/05/12 10:55:00;;;;;;;5.03;3.73;;;32.60;1.00;;;;;;4997761;28;20451;-75
2023/05/12 10:57:27;;;;;;;4.57;4.07;;;32.30;1.00;;;;;;4993193;28;20541;-76
2023/05/12 10:59:59;;;;;;;4.20;3.80;;;33.10;1.00;;;;;;4995355;28;20459;-76
2023/05/12 11:02:29;;;;;;;4.40;4.00;;;33.70;1.00;;;;;;4987917;28;20462;-76
2023/05/12 11:04:58;;;;;;;4.37;4.03;;;33.00;1.00;;;;;;4987805;28;20489;-76
2023/05/12 11:07:26;;;;;;;5.73;4.67;;;33.10;1.00;;;;;;4995218;28;21720;-79
2023/05/12 11:09:55;;;;;;;9.23;8.37;;;34.40;1.00;;;;;;4989991;28;20899;-80
2023/05/12 11:12:23;;;;;;;4.93;4.43;;;34.90;1.00;;;;;;4997627;28;20494;-79
2023/05/12 11:14:50;;;;;;;12.43;5.60;;;35.20;1.00;;;;;;4993196;28;20489;-77
2023/05/12 11:17:19;;;;;;;6.53;4.53;;;35.40;1.00;;;;;;4990110;28;20559;-80
2023/05/12 11:19:49;;;;;;;6.70;3.83;;;35.40;1.00;;;;;;4992513;28;20557;-78
2023/05/12 11:22:20;;;;;;;4.00;3.70;;;35.30;1.00;;;;;;4986947;28;20569;-78
2023/05/12 11:24:48;;;;;;;4.40;4.00;;;35.00;1.00;;;;;;4993092;28;20431;-78
2023/05/12 11:27:19;;;;;;;7.63;4.13;;;35.40;1.00;;;;;;4988059;28;21272;-77
2023/05/12 11:29:56;;;;;;;6.20;4.23;;;35.20;1.00;;;;;;4993904;28;20470;-78
2023/05/12 11:32:24;;;;;;;6.20;4.10;;;34.20;1.00;;;;;;4993069;28;20459;-77
2023/05/12 11:34:51;;;;;;;5.70;4.00;;;34.10;1.00;;;;;;5001679;28;20467;-77
2023/05/12 11:37:19;;;;;;;3.90;3.50;;;34.30;1.00;;;;;;4998507;28;20537;-78
2023/05/12 11:39:46;;;;;;;4.77;4.03;;;35.00;1.00;;;;;;5003302;28;20953;-76
2023/05/12 11:42:13;;;;;;;4.70;4.27;;;35.60;1.00;;;;;;5000647;28;20454;-77
2023/05/12 11:44:47;;;;;;;6.57;4.53;;;35.90;1.00;;;;;;4998750;28;20463;-77
2023/05/12 11:47:15;;;;;;;5.30;4.60;;;36.30;1.00;;;;;;4997257;28;20489;-78
2023/05/12 11:49:50;;;;;;;4.77;4.20;;;36.30;1.00;;;;;;5002061;28;20462;-76
2023/05/12 11:52:18;;;;;;;3.63;3.13;;;36.80;1.00;;;;;;5004065;28;20859;-76
2023/05/12 11:54:49;;;;;;;4.20;3.80;;;36.40;1.00;;;;;;5000440;28;20466;-77
2023/05/12 11:57:26;;;;;;;4.10;3.70;;;37.00;1.00;;;;;;5002429;28;20465;-76
2023/05/12 11:59:57;;;;;;;5.43;4.27;;;35.50;1.00;;;;;;5009077;28;21013;-76
2023/05/12 12:02:24;;;;;;;4.00;3.70;;;33.80;1.00;;;;;;4988230;28;20466;-79
2023/05/12 12:04:53;;;;;;;4.30;3.90;;;34.50;1.00;;;;;;5001515;28;20478;-77
2023/05/12 12:07:29;;;;;;;4.30;3.90;;;34.40;1.00;;;;;;5004902;28;21199;-76
2023/05/12 12:09:57;;;;;;;4.47;3.20;;;35.30;1.00;;;;;;5002905;28;20470;-77
2023/05/12 12:12:24;;;;;;;4.87;3.87;;;35.50;1.00;;;;;;5001321;28;20540;-76
2023/05/12 12:14:51;;;;;;;3.70;3.40;;;35.80;1.00;;;;;;5006209;28;20509;-75
2023/05/12 12:17:18;;;;;;;5.90;3.50;;;36.30;1.00;;;;;;4984530;28;20964;-77
2023/05/12 12:19:46;;;;;;;4.40;3.77;;;36.10;1.00;;;;;;5010475;28;20513;-76
2023/05/12 12:22:15;;;;;;;5.20;3.70;;;36.20;1.00;;;;;;5001279;28;20948;-77
2023/05/12 12:24:43;;;;;;;3.90;3.60;;;36.10;1.00;;;;;;5005999;28;20594;-77
2023/05/12 12:27:10;;;;;;;3.87;3.57;;;35.90;1.00;;;;;;5005948;28;20459;-76
2023/05/12 12:29:36;;;;;;;7.17;5.23;;;36.20;1.00;;;;;;5002879;28;20455;-76
2023/05/12 12:32:04;;;;;;;4.43;4.03;;;36.50;1.00;;;;;;5000479;28;20556;-76
2023/05/12 12:34:32;;;;;;;3.90;3.60;;;37.00;1.00;;;;;;5003635;28;20466;-75
2023/05/12 12:36:59;;;;;;;4.43;4.03;;;37.00;1.00;;;;;;5003109;28;20471;-76
2023/05/12 12:39:27;;;;;;;4.87;3.87;;;37.50;1.00;;;;;;4997773;28;20594;-77
2023/05/12 12:41:55;;;;;;;4.80;4.50;;;38.10;1.00;;;;;;5000744;28;21155;-77
2023/05/12 12:44:22;;;;;;;4.07;3.77;;;36.90;1.00;;;;;;5000196;28;21010;-76
2023/05/12 12:46:50;;;;;;;4.63;3.77;;;36.80;1.00;;;;;;5000768;28;20567;-78
2023/05/12 12:49:17;;;;;;;8.93;4.30;;;37.50;1.00;;;;;;5003134;28;20560;-77
2023/05/12 12:51:44;;;;;;;5.47;4.30;;;37.50;1.00;;;;;;5002951;28;20552;-76
2023/05/12 12:54:11;;;;;;;4.60;3.83;;;35.30;1.00;;;;;;5005020;28;20588;-76
2023/05/12 12:56:39;;;;;;;3.90;3.23;;;34.10;1.00;;;;;;5001384;28;21296;-76
2023/05/12 12:59:06;;;;;;;4.50;3.80;;;33.60;1.00;;;;;;4999482;28;20469;-77
2023/05/12 13:01:33;;;;;;;3.67;3.10;;;35.00;1.00;;;;;;5000331;28;20542;-76